createdAt,value
2018-04-16T00:01:00.301Z,1.70
2018-04-16T00:03:28.591Z,2.30
2018-04-16T00:05:56.961Z,2.03
2018-04-16T00:08:25.235Z,2.00
2018-04-16T00:10:53.578Z,2.20
2018-04-16T00:13:21.916Z,2.40
2018-04-16T00:15:50.204Z,1.97
2018-04-16T00:18:18.536Z,2.10
2018-04-16T00:20:46.868Z,2.57
2018-04-16T00:23:15.146Z,2.30
2018-04-16T00:25:43.456Z,2.17
2018-04-16T00:28:11.789Z,2.73
2018-04-16T00:30:40.148Z,2.83
2018-04-16T00:33:14.537Z,2.30
2018-04-16T00:36:03.887Z,2.53
2018-04-16T00:38:38.447Z,2.40
2018-04-16T00:41:12.936Z,2.10
2018-04-16T00:43:47.537Z,2.20
2018-04-16T00:46:22.211Z,2.87
2018-04-16T00:48:56.704Z,2.70
2018-04-16T00:51:31.190Z,2.23
2018-04-16T00:54:11.870Z,2.87
2018-04-16T00:56:46.380Z,2.53
2018-04-16T00:59:20.796Z,2.10
2018-04-16T01:01:55.339Z,2.43
2018-04-16T01:04:29.704Z,2.30
2018-04-16T01:07:04.215Z,2.30
2018-04-16T01:09:38.735Z,2.30
2018-04-16T01:12:13.225Z,2.07
2018-04-16T01:14:47.816Z,1.93
2018-04-16T01:17:22.276Z,2.13
2018-04-16T01:19:56.791Z,2.30
2018-04-16T01:22:31.312Z,1.83
2018-04-16T01:25:05.860Z,1.80
2018-04-16T01:27:40.352Z,1.67
2018-04-16T01:30:14.855Z,2.33
2018-04-16T01:32:49.479Z,2.80
2018-04-16T01:35:24.004Z,1.53
2018-04-16T01:37:58.531Z,1.50
2018-04-16T01:40:32.928Z,2.00
2018-04-16T01:43:07.499Z,2.07
2018-04-16T01:45:42.068Z,1.70
2018-04-16T01:48:16.656Z,2.00
2018-04-16T01:50:51.274Z,2.27
2018-04-16T01:53:25.818Z,1.87
2018-04-16T01:56:00.395Z,2.43
2018-04-16T01:58:34.771Z,2.37
2018-04-16T02:01:09.232Z,2.20
2018-04-16T02:03:43.711Z,2.13
2018-04-16T02:06:18.300Z,2.10
2018-04-16T02:08:53.860Z,2.83
2018-04-16T02:11:28.283Z,2.30
2018-04-16T02:14:11.507Z,2.40
2018-04-16T02:16:45.984Z,1.90
2018-04-16T02:19:20.541Z,2.03
2018-04-16T02:21:55.104Z,2.07
2018-04-16T02:24:29.487Z,1.93
2018-04-16T02:27:04.079Z,2.00
2018-04-16T02:29:38.667Z,2.17
2018-04-16T02:32:13.100Z,2.30
2018-04-16T02:34:47.626Z,2.50
2018-04-16T02:37:22.126Z,2.47
2018-04-16T02:39:56.746Z,1.83
2018-04-16T02:42:31.165Z,2.00
2018-04-16T02:45:05.585Z,2.40
2018-04-16T02:47:40.103Z,2.20
2018-04-16T02:50:14.657Z,2.50
2018-04-16T02:52:49.160Z,2.10
2018-04-16T02:55:23.728Z,2.17
2018-04-16T02:57:58.331Z,2.50
2018-04-16T03:00:32.879Z,2.13
2018-04-16T03:03:07.346Z,2.57
2018-04-16T03:05:41.858Z,2.27
2018-04-16T03:08:16.375Z,2.60
2018-04-16T03:10:50.872Z,2.70
2018-04-16T03:13:25.442Z,3.00
2018-04-16T03:15:59.887Z,3.10
2018-04-16T03:18:34.248Z,2.93
2018-04-16T03:21:08.737Z,3.43
2018-04-16T03:23:43.265Z,3.00
2018-04-16T03:26:17.827Z,2.00
2018-04-16T03:29:02.060Z,2.10
2018-04-16T03:31:36.657Z,2.07
2018-04-16T03:34:11.287Z,2.43
2018-04-16T03:36:45.808Z,1.97
2018-04-16T03:39:20.367Z,2.20
2018-04-16T03:41:54.885Z,2.07
2018-04-16T03:44:29.353Z,2.70
2018-04-16T03:47:16.652Z,2.47
2018-04-16T03:49:51.176Z,1.97
2018-04-16T03:52:26.559Z,2.40
2018-04-16T03:54:54.896Z,2.20
2018-04-16T03:57:23.191Z,2.43
2018-04-16T03:59:51.501Z,2.07
2018-04-16T04:02:19.823Z,2.50
2018-04-16T04:04:48.112Z,2.60
2018-04-16T04:07:16.449Z,2.33
2018-04-16T04:09:44.760Z,2.97
2018-04-16T04:12:13.059Z,2.30
2018-04-16T04:14:41.349Z,2.40
2018-04-16T04:17:09.663Z,2.10
2018-04-16T04:19:37.969Z,2.63
2018-04-16T04:22:06.239Z,1.97
2018-04-16T04:24:40.662Z,2.23
2018-04-16T04:27:15.190Z,2.23
2018-04-16T04:29:49.704Z,2.20
2018-04-16T04:32:18.034Z,2.77
2018-04-16T04:34:46.336Z,2.00
2018-04-16T04:37:14.684Z,2.50
2018-04-16T04:39:42.983Z,2.03
2018-04-16T04:42:11.332Z,2.20
2018-04-16T04:44:39.639Z,2.77
2018-04-16T04:47:07.955Z,2.87
2018-04-16T04:49:36.203Z,2.10
2018-04-16T04:52:04.511Z,2.67
2018-04-16T04:54:32.851Z,2.50
2018-04-16T04:57:01.163Z,2.80
2018-04-16T04:59:29.443Z,2.57
2018-04-16T05:01:57.761Z,2.40
2018-04-16T05:04:27.189Z,2.67
2018-04-16T05:06:55.540Z,2.80
2018-04-16T05:09:23.845Z,2.60
2018-04-16T05:11:52.187Z,1.80
2018-04-16T05:14:20.596Z,2.37
2018-04-16T05:16:48.912Z,2.20
2018-04-16T05:19:17.200Z,2.23
2018-04-16T05:21:45.503Z,2.00
2018-04-16T05:24:13.860Z,1.95
2018-04-16T05:26:42.140Z,2.53
2018-04-16T05:29:10.443Z,2.80
2018-04-16T05:31:38.768Z,2.70
2018-04-16T05:34:07.056Z,3.20
2018-04-16T05:36:35.388Z,4.20
2018-04-16T05:39:06.850Z,2.97
2018-04-16T05:41:35.702Z,3.33
2018-04-16T05:44:03.999Z,3.57
2018-04-16T05:46:32.315Z,4.30
2018-04-16T05:49:00.690Z,4.20
2018-04-16T05:51:29.019Z,4.37
2018-04-16T05:53:57.339Z,3.83
2018-04-16T05:56:25.672Z,3.57
2018-04-16T05:58:53.972Z,4.40
2018-04-16T06:01:22.312Z,3.90
2018-04-16T06:03:50.704Z,4.80
2018-04-16T06:06:19.032Z,5.33
2018-04-16T06:08:47.356Z,4.20
2018-04-16T06:11:15.656Z,5.00
2018-04-16T06:13:43.955Z,4.93
2018-04-16T06:16:12.260Z,4.97
2018-04-16T06:18:40.658Z,5.00
2018-04-16T06:21:08.949Z,5.43
2018-04-16T06:23:37.235Z,6.20
2018-04-16T06:26:05.561Z,6.97
2018-04-16T06:28:33.871Z,7.10
2018-04-16T06:31:02.168Z,6.37
2018-04-16T06:33:30.483Z,8.30
2018-04-16T06:35:58.800Z,6.47
2018-04-16T06:38:27.099Z,6.47
2018-04-16T06:40:55.424Z,6.70
2018-04-16T06:43:23.743Z,7.93
2018-04-16T06:45:52.048Z,7.73
2018-04-16T06:48:20.355Z,7.77
2018-04-16T06:50:48.700Z,8.70
2018-04-16T06:53:17.035Z,6.97
2018-04-16T06:55:45.323Z,7.30
2018-04-16T06:58:13.645Z,5.80
2018-04-16T07:00:41.944Z,6.00
2018-04-16T07:03:10.270Z,6.70
2018-04-16T07:05:38.619Z,6.30
2018-04-16T07:08:06.921Z,6.23
2018-04-16T07:10:35.273Z,6.17
2018-04-16T07:13:03.625Z,7.30
2018-04-16T07:15:31.940Z,7.07
2018-04-16T07:18:00.274Z,5.90
2018-04-16T07:20:28.576Z,6.30
2018-04-16T07:22:56.899Z,5.40
2018-04-16T07:25:25.233Z,4.70
2018-04-16T07:27:53.519Z,4.67
2018-04-16T07:30:21.808Z,5.47
2018-04-16T07:32:50.115Z,6.07
2018-04-16T07:35:18.423Z,5.20
2018-04-16T07:37:46.735Z,5.20
2018-04-16T07:40:15.071Z,5.40
2018-04-16T07:42:43.394Z,5.53
2018-04-16T07:45:11.723Z,6.73
2018-04-16T07:47:40.040Z,5.90
2018-04-16T07:50:08.356Z,6.13
2018-04-16T07:52:36.674Z,5.80
2018-04-16T07:55:04.975Z,5.40
2018-04-16T07:57:33.248Z,5.20
2018-04-16T08:00:01.563Z,5.40
2018-04-16T08:02:29.871Z,5.40
2018-04-16T08:04:58.164Z,5.60
2018-04-16T08:07:26.443Z,5.17
2018-04-16T08:09:55.337Z,5.13
2018-04-16T08:12:23.660Z,4.93
2018-04-16T08:14:51.963Z,4.30
2018-04-16T08:17:20.288Z,4.60
2018-04-16T08:19:48.575Z,3.90
2018-04-16T08:22:16.911Z,4.20
2018-04-16T08:24:45.211Z,3.83
2018-04-16T08:27:13.523Z,5.17
2018-04-16T08:29:41.809Z,3.00
2018-04-16T08:32:10.211Z,3.20
2018-04-16T08:34:38.532Z,2.87
2018-04-16T08:37:06.819Z,2.97
2018-04-16T08:39:35.119Z,2.90
2018-04-16T08:42:03.407Z,2.60
2018-04-16T08:44:31.667Z,2.00
2018-04-16T08:46:59.969Z,1.90
2018-04-16T08:49:28.257Z,1.83
2018-04-16T08:51:56.576Z,2.30
2018-04-16T08:54:24.868Z,1.77
2018-04-16T08:56:53.169Z,2.53
2018-04-16T08:59:21.461Z,2.07
2018-04-16T09:01:49.780Z,1.63
2018-04-16T09:04:18.069Z,1.20
2018-04-16T09:06:46.383Z,1.20
2018-04-16T09:09:14.700Z,1.40
2018-04-16T09:11:43.026Z,1.30
2018-04-16T09:14:11.308Z,1.10
2018-04-16T09:16:39.611Z,1.60
2018-04-16T09:19:07.919Z,2.17
2018-04-16T09:21:36.215Z,1.67
2018-04-16T09:24:04.581Z,1.30
2018-04-16T09:26:32.900Z,1.37
2018-04-16T09:29:01.243Z,1.37
2018-04-16T09:31:29.539Z,1.47
2018-04-16T09:33:57.847Z,1.40
2018-04-16T09:36:27.180Z,1.53
2018-04-16T09:38:56.619Z,1.47
2018-04-16T09:41:24.910Z,1.30
2018-04-16T09:43:53.199Z,1.23
2018-04-16T09:46:22.592Z,1.13
2018-04-16T09:48:50.889Z,1.00
2018-04-16T09:51:19.144Z,0.90
2018-04-16T09:53:47.446Z,1.00
2018-04-16T09:56:15.746Z,0.80
2018-04-16T09:58:44.036Z,1.33
2018-04-16T10:01:18.475Z,0.80
2018-04-16T10:03:46.795Z,1.43
2018-04-16T10:06:15.107Z,1.10
2018-04-16T10:08:43.431Z,0.77
2018-04-16T10:11:11.687Z,0.90
2018-04-16T10:13:39.998Z,1.27
2018-04-16T10:16:08.299Z,1.03
2018-04-16T10:18:36.609Z,1.30
2018-04-16T10:21:04.899Z,1.00
2018-04-16T10:23:33.187Z,1.00
2018-04-16T10:26:01.479Z,1.00
2018-04-16T10:28:29.743Z,0.80
2018-04-16T10:30:58.069Z,0.70
2018-04-16T10:33:26.361Z,0.90
2018-04-16T10:35:54.708Z,1.20
2018-04-16T10:38:22.995Z,1.63
2018-04-16T10:40:51.276Z,0.97
2018-04-16T10:43:19.606Z,1.10
2018-04-16T10:45:47.928Z,1.40
2018-04-16T10:48:16.223Z,1.57
2018-04-16T10:50:44.502Z,1.50
2018-04-16T10:53:12.823Z,1.70
2018-04-16T10:55:41.237Z,1.40
2018-04-16T10:58:09.496Z,1.77
2018-04-16T11:00:37.816Z,2.10
2018-04-16T11:03:06.087Z,1.60
2018-04-16T11:05:34.404Z,1.10
2018-04-16T11:08:02.729Z,1.43
2018-04-16T11:10:31.027Z,1.40
2018-04-16T11:12:59.336Z,1.30
2018-04-16T11:15:27.612Z,1.53
2018-04-16T11:17:55.975Z,1.20
2018-04-16T11:20:24.304Z,1.27
2018-04-16T11:22:52.616Z,1.07
2018-04-16T11:25:20.919Z,1.70
2018-04-16T11:27:49.269Z,1.20
2018-04-16T11:30:17.568Z,1.00
2018-04-16T11:32:45.846Z,1.03
2018-04-16T11:35:14.160Z,1.57
2018-04-16T11:37:42.503Z,0.93
2018-04-16T11:40:10.820Z,1.10
2018-04-16T11:42:40.066Z,1.10
2018-04-16T11:45:08.427Z,1.00
2018-04-16T11:47:38.299Z,1.13
2018-04-16T11:50:06.650Z,1.50
2018-04-16T11:52:34.981Z,1.40
2018-04-16T11:55:03.327Z,1.00
2018-04-16T11:57:31.665Z,1.43
2018-04-16T11:59:59.984Z,1.20
2018-04-16T12:02:28.335Z,1.20
2018-04-16T12:04:56.640Z,1.00
2018-04-16T12:07:24.967Z,1.10
2018-04-16T12:09:53.266Z,0.93
2018-04-16T12:12:21.556Z,0.80
2018-04-16T12:14:49.874Z,1.10
2018-04-16T13:33:16.466Z,0.83
2018-04-16T13:35:44.740Z,0.73
2018-04-16T13:38:13.023Z,1.00
2018-04-16T13:40:41.348Z,1.00
2018-04-16T13:43:09.600Z,1.03
2018-04-16T13:45:37.851Z,1.07
2018-04-16T13:48:06.163Z,1.00
2018-04-16T13:50:34.452Z,0.80
2018-04-16T13:53:02.768Z,1.10
2018-04-16T13:55:31.081Z,0.90
2018-04-16T13:57:59.328Z,0.80
2018-04-16T14:00:27.612Z,1.00
2018-04-16T14:02:55.912Z,1.10
2018-04-16T14:05:24.179Z,0.93
2018-04-16T14:07:52.468Z,1.53
2018-04-16T14:10:20.780Z,1.67
2018-04-16T14:12:49.097Z,1.37
2018-04-16T14:15:17.370Z,1.00
2018-04-16T14:17:45.651Z,1.30
2018-04-16T14:20:14.939Z,1.33
2018-04-16T14:22:43.203Z,1.63
2018-04-16T14:25:11.527Z,1.40
2018-04-16T14:27:39.838Z,0.97
2018-04-16T14:30:08.136Z,1.07
2018-04-16T14:32:36.467Z,1.20
2018-04-16T14:35:04.740Z,1.07
2018-04-16T14:37:33.047Z,1.30
2018-04-16T14:40:01.379Z,1.07
2018-04-16T14:42:29.660Z,0.80
2018-04-16T14:44:57.948Z,0.97
2018-04-16T14:47:26.279Z,1.27
2018-04-16T14:49:54.633Z,0.90
2018-04-16T14:52:22.891Z,1.10
2018-04-16T14:54:51.215Z,0.90
2018-04-16T14:57:19.498Z,0.90
2018-04-16T14:59:48.827Z,1.17
2018-04-16T15:02:17.150Z,1.23
2018-04-16T15:04:45.444Z,1.10
2018-04-16T15:07:13.726Z,0.87
2018-04-16T15:09:42.028Z,0.90
2018-04-16T15:12:10.315Z,0.67
2018-04-16T15:14:38.636Z,0.87
2018-04-16T15:17:06.940Z,0.80
2018-04-16T15:19:35.222Z,1.13
2018-04-16T15:22:03.531Z,1.00
2018-04-16T15:24:31.811Z,3.00
2018-04-16T15:27:00.131Z,1.97
2018-04-16T15:29:28.437Z,1.00
2018-04-16T15:31:56.720Z,0.83
2018-04-16T15:34:25.024Z,0.90
2018-04-16T15:36:54.389Z,1.43
2018-04-16T15:39:22.680Z,1.10
2018-04-16T15:41:50.999Z,1.10
2018-04-16T15:44:19.312Z,1.00
2018-04-16T15:46:47.604Z,1.27
2018-04-16T15:49:15.917Z,0.97
2018-04-16T15:51:44.231Z,1.20
2018-04-16T15:54:12.571Z,1.07
2018-04-16T15:56:40.871Z,1.23
2018-04-16T15:59:09.160Z,0.90
2018-04-16T16:01:37.468Z,1.20
2018-04-16T16:04:05.780Z,0.90
2018-04-16T16:06:34.129Z,0.90
2018-04-16T16:09:02.389Z,0.90
2018-04-16T16:11:30.665Z,0.70
2018-04-16T16:13:58.991Z,0.90
2018-04-16T16:16:27.275Z,1.03
2018-04-16T16:18:55.568Z,1.20
2018-04-16T16:21:23.856Z,1.20
2018-04-16T16:23:52.145Z,1.10
2018-04-16T16:26:20.633Z,1.57
2018-04-16T16:28:49.063Z,1.13
2018-04-16T16:31:17.351Z,1.10
2018-04-16T16:33:45.697Z,1.03
2018-04-16T16:36:13.991Z,1.20
2018-04-16T16:38:42.303Z,1.53
2018-04-16T16:41:10.709Z,1.03
2018-04-16T16:43:39.084Z,1.23
2018-04-16T16:46:08.740Z,0.97
2018-04-16T16:48:37.085Z,1.17
2018-04-16T16:51:06.358Z,1.10
2018-04-16T16:53:34.969Z,1.17
2018-04-16T16:56:03.483Z,1.47
2018-04-16T16:58:31.807Z,1.27
2018-04-16T17:01:00.096Z,1.67
2018-04-16T17:03:28.404Z,1.63
2018-04-16T17:05:56.790Z,1.70
2018-04-16T17:08:25.564Z,2.00
2018-04-16T17:10:53.923Z,1.30
2018-04-16T17:13:22.280Z,1.00
2018-04-16T17:15:50.737Z,1.10
2018-04-16T17:18:19.052Z,1.17
2018-04-16T17:20:47.380Z,1.30
2018-04-16T17:23:15.775Z,1.37
2018-04-16T17:25:44.104Z,2.03
2018-04-16T17:28:12.435Z,2.20
2018-04-16T17:30:40.739Z,1.20
2018-04-16T17:33:09.044Z,1.27
2018-04-16T17:35:37.362Z,1.50
2018-04-16T17:38:08.776Z,1.30
2018-04-16T17:40:37.092Z,1.80
2018-04-16T17:43:05.399Z,2.00
2018-04-16T17:45:33.743Z,1.57
2018-04-16T17:48:02.060Z,1.13
2018-04-16T17:50:30.351Z,1.00
2018-04-16T17:52:58.631Z,1.23
2018-04-16T17:55:26.966Z,1.60
2018-04-16T17:57:55.263Z,1.10
2018-04-16T18:00:23.587Z,1.60
2018-04-16T18:02:51.883Z,1.60
2018-04-16T18:05:20.200Z,1.83
2018-04-16T18:07:48.478Z,1.90
2018-04-16T18:10:16.791Z,2.30
2018-04-16T18:12:45.087Z,1.90
2018-04-16T18:15:13.391Z,2.90
2018-04-16T18:17:41.684Z,2.40
2018-04-16T18:20:09.999Z,2.87
2018-04-16T18:22:38.295Z,2.07
2018-04-16T18:25:06.628Z,2.03
2018-04-16T18:27:34.954Z,2.60
2018-04-16T18:30:03.273Z,2.43
2018-04-16T18:32:31.583Z,2.90
2018-04-16T18:34:59.887Z,2.40
2018-04-16T18:37:28.210Z,2.50
2018-04-16T18:39:56.524Z,3.07
2018-04-16T18:42:24.839Z,2.90
2018-04-16T18:44:53.167Z,2.90
2018-04-16T18:47:21.512Z,2.97
2018-04-16T18:49:49.837Z,2.90
2018-04-16T18:52:18.148Z,3.13
2018-04-16T18:54:46.479Z,3.53
2018-04-16T18:57:14.783Z,2.87
2018-04-16T18:59:43.088Z,2.80
2018-04-16T19:02:11.453Z,2.97
2018-04-16T19:04:39.709Z,3.10
2018-04-16T19:07:08.016Z,3.70
2018-04-16T19:09:36.345Z,3.17
2018-04-16T19:12:04.620Z,3.50
2018-04-16T19:14:32.911Z,3.07
2018-04-16T19:17:01.239Z,2.72
2018-04-16T19:19:29.511Z,3.23
2018-04-16T19:21:57.827Z,5.90
2018-04-16T19:24:26.133Z,5.70
2018-04-16T19:27:01.804Z,3.80
2018-04-16T19:29:30.111Z,3.10
2018-04-16T19:31:58.431Z,3.20
2018-04-16T19:34:32.956Z,3.67
2018-04-16T19:37:01.276Z,4.07
2018-04-16T19:39:29.556Z,3.53
2018-04-16T19:42:04.028Z,3.60
2018-04-16T19:44:32.343Z,4.15
2018-04-16T19:47:00.671Z,3.43
2018-04-16T19:49:35.046Z,3.30
2018-04-16T19:52:03.432Z,4.00
2018-04-16T19:54:31.705Z,3.63
2018-04-16T19:57:06.130Z,3.67
2018-04-16T19:59:34.417Z,3.30
2018-04-16T20:02:09.002Z,4.03
2018-04-16T20:04:37.440Z,4.50
2018-04-16T20:07:05.845Z,4.13
2018-04-16T20:09:34.194Z,3.93
2018-04-16T20:12:02.519Z,4.20
2018-04-16T20:14:30.915Z,3.17
2018-04-16T20:16:59.231Z,4.10
2018-04-16T20:19:27.503Z,3.40
2018-04-16T20:21:55.779Z,4.60
2018-04-16T20:24:24.100Z,4.20
2018-04-16T20:26:52.412Z,4.00
2018-04-16T20:29:20.672Z,3.80
2018-04-16T20:31:49.014Z,4.53
2018-04-16T20:34:18.447Z,4.67
2018-04-16T20:36:46.728Z,4.60
2018-04-16T20:39:15.028Z,3.80
2018-04-16T20:41:43.454Z,4.20
2018-04-16T20:44:11.795Z,3.83
2018-04-16T20:46:40.084Z,3.90
2018-04-16T20:49:09.499Z,3.87
2018-04-16T20:51:37.811Z,3.73
2018-04-16T20:54:06.171Z,3.47
2018-04-16T20:56:34.472Z,4.50
2018-04-16T20:59:02.783Z,4.20
2018-04-16T21:01:31.113Z,4.40
2018-04-16T21:03:59.441Z,3.50
2018-04-16T21:06:27.706Z,4.10
2018-04-16T21:08:56.039Z,3.80
2018-04-16T21:11:24.385Z,4.10
2018-04-16T21:13:52.697Z,4.50
2018-04-16T21:16:21.028Z,4.70
2018-04-16T21:18:50.411Z,4.87
2018-04-16T21:21:18.750Z,4.90
2018-04-16T21:23:47.051Z,4.70
2018-04-16T21:26:21.890Z,4.63
2018-04-16T21:28:51.977Z,4.10
2018-04-16T21:31:22.547Z,4.07
2018-04-16T21:33:51.907Z,4.40
2018-04-16T21:36:20.239Z,4.37
2018-04-16T21:38:48.572Z,4.50
2018-04-16T21:41:16.872Z,5.47
2018-04-16T21:43:45.171Z,5.10
2018-04-16T21:46:13.472Z,4.97
2018-04-16T21:48:41.776Z,4.60
2018-04-16T21:51:10.082Z,4.63
2018-04-16T21:53:38.375Z,4.80
2018-04-16T21:56:06.691Z,5.03
2018-04-16T21:58:35.001Z,4.50
2018-04-16T22:01:03.287Z,4.43
2018-04-16T22:03:32.728Z,4.30
2018-04-16T22:06:01.022Z,4.30
2018-04-16T22:08:29.281Z,4.07
2018-04-16T22:10:57.579Z,4.50
2018-04-16T22:13:25.872Z,4.90
2018-04-16T22:15:54.181Z,4.30
2018-04-16T22:18:22.479Z,4.50
2018-04-16T22:20:50.778Z,4.83
2018-04-16T22:23:19.072Z,3.67
2018-04-16T22:25:47.383Z,5.00
2018-04-16T22:28:15.669Z,5.07
2018-04-16T22:30:43.946Z,4.83
2018-04-16T22:33:12.260Z,5.00
2018-04-16T22:35:40.559Z,4.67
2018-04-16T22:38:08.818Z,4.90
2018-04-16T22:40:37.128Z,4.50
2018-04-16T22:43:05.411Z,5.47
2018-04-16T22:45:33.740Z,4.23
2018-04-16T22:48:02.068Z,3.93
2018-04-16T22:50:30.383Z,4.93
2018-04-16T22:52:58.674Z,4.87
2018-04-16T22:55:26.962Z,5.30
2018-04-16T22:57:55.271Z,5.77
2018-04-16T23:00:23.588Z,4.83
2018-04-16T23:02:51.923Z,5.20
2018-04-16T23:05:20.235Z,5.10
2018-04-16T23:07:48.559Z,5.23
2018-04-16T23:10:16.858Z,5.27
2018-04-16T23:12:45.162Z,5.60
2018-04-16T23:15:13.453Z,5.33
2018-04-16T23:17:41.768Z,5.13
2018-04-16T23:20:10.071Z,5.50
2018-04-16T23:22:38.387Z,5.17
2018-04-16T23:25:06.676Z,5.60
2018-04-16T23:27:34.990Z,4.63
2018-04-16T23:30:03.304Z,5.30
2018-04-16T23:32:31.611Z,5.40
2018-04-16T23:34:59.892Z,5.27
2018-04-16T23:37:28.195Z,5.37
2018-04-16T23:39:56.496Z,4.77
2018-04-16T23:42:24.803Z,6.20
2018-04-16T23:44:53.114Z,5.50
2018-04-16T23:47:21.399Z,4.90
2018-04-16T23:49:49.701Z,5.50
2018-04-16T23:52:18.033Z,6.10
2018-04-16T23:54:46.335Z,7.30
2018-04-16T23:57:14.648Z,5.03
2018-04-16T23:59:44.025Z,4.97
